sensor_id;sensor_type;location;lat;lon;timestamp;temperature;humidity
16313;DHT22;8265;52.622;13.296;2023-04-06T00:01:24;2.80;68.90
16313;DHT22;8265;52.622;13.296;2023-04-06T00:06:45;2.70;69.20
16313;DHT22;8265;52.622;13.296;2023-04-06T00:12:06;2.50;70.10
16313;DHT22;8265;52.622;13.296;2023-04-06T00:17:27;2.30;70.70
16313;DHT22;8265;52.622;13.296;2023-04-06T00:22:48;2.00;71.70
16313;DHT22;8265;52.622;13.296;2023-04-06T00:28:09;1.90;72.10
16313;DHT22;8265;52.622;13.296;2023-04-06T00:33:30;1.80;72.50
16313;DHT22;8265;52.622;13.296;2023-04-06T00:38:51;1.60;72.30
16313;DHT22;8265;52.622;13.296;2023-04-06T00:44:12;1.50;73.00
16313;DHT22;8265;52.622;13.296;2023-04-06T00:49:33;1.50;73.00
16313;DHT22;8265;52.622;13.296;2023-04-06T00:54:54;1.50;72.80
16313;DHT22;8265;52.622;13.296;2023-04-06T01:00:15;1.40;72.90
16313;DHT22;8265;52.622;13.296;2023-04-06T01:05:36;1.40;73.40
16313;DHT22;8265;52.622;13.296;2023-04-06T01:10:58;1.40;73.10
16313;DHT22;8265;52.622;13.296;2023-04-06T01:16:18;1.20;74.20
16313;DHT22;8265;52.622;13.296;2023-04-06T01:21:39;1.20;74.10
16313;DHT22;8265;52.622;13.296;2023-04-06T01:27:00;1.00;75.00
16313;DHT22;8265;52.622;13.296;2023-04-06T01:32:21;0.60;76.00
16313;DHT22;8265;52.622;13.296;2023-04-06T01:37:42;0.50;76.10
16313;DHT22;8265;52.622;13.296;2023-04-06T01:43:03;0.40;76.70
16313;DHT22;8265;52.622;13.296;2023-04-06T01:48:24;0.10;77.30
16313;DHT22;8265;52.622;13.296;2023-04-06T01:53:45;0.00;78.20
16313;DHT22;8265;52.622;13.296;2023-04-06T01:59:06;-0.20;79.20
16313;DHT22;8265;52.622;13.296;2023-04-06T02:04:27;-0.40;79.80
16313;DHT22;8265;52.622;13.296;2023-04-06T02:09:48;-0.40;80.30
16313;DHT22;8265;52.622;13.296;2023-04-06T02:15:09;-0.40;80.40
16313;DHT22;8265;52.622;13.296;2023-04-06T02:20:30;-0.40;80.20
16313;DHT22;8265;52.622;13.296;2023-04-06T02:25:51;-0.60;81.20
16313;DHT22;8265;52.622;13.296;2023-04-06T02:31:11;-0.60;81.00
16313;DHT22;8265;52.622;13.296;2023-04-06T02:36:32;-0.70;81.50
16313;DHT22;8265;52.622;13.296;2023-04-06T02:41:53;-0.70;81.40
16313;DHT22;8265;52.622;13.296;2023-04-06T02:47:14;-0.90;82.20
16313;DHT22;8265;52.622;13.296;2023-04-06T02:52:35;-1.00;83.00
16313;DHT22;8265;52.622;13.296;2023-04-06T02:57:56;-1.10;83.00
16313;DHT22;8265;52.622;13.296;2023-04-06T03:03:17;-1.30;83.20
16313;DHT22;8265;52.622;13.296;2023-04-06T03:08:38;-1.30;83.10
16313;DHT22;8265;52.622;13.296;2023-04-06T03:13:59;-1.50;84.00
16313;DHT22;8265;52.622;13.296;2023-04-06T03:19:20;-1.50;84.10
16313;DHT22;8265;52.622;13.296;2023-04-06T03:24:41;-1.60;83.50
16313;DHT22;8265;52.622;13.296;2023-04-06T03:30:02;-1.60;84.00
16313;DHT22;8265;52.622;13.296;2023-04-06T03:35:23;-1.60;85.20
16313;DHT22;8265;52.622;13.296;2023-04-06T03:40:44;-1.60;85.30
16313;DHT22;8265;52.622;13.296;2023-04-06T03:46:05;-1.70;84.60
16313;DHT22;8265;52.622;13.296;2023-04-06T03:51:27;-1.80;84.90
16313;DHT22;8265;52.622;13.296;2023-04-06T03:56:47;-1.80;84.70
16313;DHT22;8265;52.622;13.296;2023-04-06T04:02:08;-1.80;84.70
16313;DHT22;8265;52.622;13.296;2023-04-06T04:07:29;-1.90;84.70
16313;DHT22;8265;52.622;13.296;2023-04-06T04:12:50;-2.00;84.50
16313;DHT22;8265;52.622;13.296;2023-04-06T04:18:11;-1.90;85.50
16313;DHT22;8265;52.622;13.296;2023-04-06T04:23:32;-1.70;85.80
16313;DHT22;8265;52.622;13.296;2023-04-06T04:28:53;-1.70;84.70
16313;DHT22;8265;52.622;13.296;2023-04-06T04:34:14;-1.90;85.20
16313;DHT22;8265;52.622;13.296;2023-04-06T04:39:35;-1.90;85.50
16313;DHT22;8265;52.622;13.296;2023-04-06T04:44:56;-2.00;85.70
16313;DHT22;8265;52.622;13.296;2023-04-06T04:50:17;-2.10;85.10
16313;DHT22;8265;52.622;13.296;2023-04-06T04:55:38;-1.90;85.70
16313;DHT22;8265;52.622;13.296;2023-04-06T05:00:58;-2.10;85.80
16313;DHT22;8265;52.622;13.296;2023-04-06T05:06:19;-2.10;85.80
16313;DHT22;8265;52.622;13.296;2023-04-06T05:11:40;-2.00;86.60
16313;DHT22;8265;52.622;13.296;2023-04-06T05:17:01;-1.90;86.10
16313;DHT22;8265;52.622;13.296;2023-04-06T05:22:22;-1.90;86.40
16313;DHT22;8265;52.622;13.296;2023-04-06T05:27:43;-1.70;86.40
16313;DHT22;8265;52.622;13.296;2023-04-06T05:33:04;-1.30;85.80
16313;DHT22;8265;52.622;13.296;2023-04-06T05:38:25;-1.10;85.30
16313;DHT22;8265;52.622;13.296;2023-04-06T05:43:46;-1.00;85.00
16313;DHT22;8265;52.622;13.296;2023-04-06T05:49:07;-0.60;84.50
16313;DHT22;8265;52.622;13.296;2023-04-06T05:54:28;-0.20;83.90
16313;DHT22;8265;52.622;13.296;2023-04-06T05:59:49;0.00;83.10
16313;DHT22;8265;52.622;13.296;2023-04-06T06:05:10;0.20;82.40
16313;DHT22;8265;52.622;13.296;2023-04-06T06:10:31;0.60;80.70
16313;DHT22;8265;52.622;13.296;2023-04-06T06:15:52;0.90;78.90
16313;DHT22;8265;52.622;13.296;2023-04-06T06:21:13;1.20;77.80
16313;DHT22;8265;52.622;13.296;2023-04-06T06:26:34;1.50;77.00
16313;DHT22;8265;52.622;13.296;2023-04-06T06:31:55;2.00;78.50
16313;DHT22;8265;52.622;13.296;2023-04-06T06:37:16;2.60;73.80
16313;DHT22;8265;52.622;13.296;2023-04-06T06:42:36;3.10;70.40
16313;DHT22;8265;52.622;13.296;2023-04-06T06:47:57;3.30;69.60
16313;DHT22;8265;52.622;13.296;2023-04-06T06:53:19;3.50;69.10
16313;DHT22;8265;52.622;13.296;2023-04-06T06:58:39;4.00;68.00
16313;DHT22;8265;52.622;13.296;2023-04-06T07:04:00;4.50;63.70
16313;DHT22;8265;52.622;13.296;2023-04-06T07:09:21;4.90;64.50
16313;DHT22;8265;52.622;13.296;2023-04-06T07:14:42;5.00;61.50
16313;DHT22;8265;52.622;13.296;2023-04-06T07:20:04;4.70;61.90
16313;DHT22;8265;52.622;13.296;2023-04-06T07:25:24;5.00;62.10
16313;DHT22;8265;52.622;13.296;2023-04-06T07:30:45;5.30;60.60
16313;DHT22;8265;52.622;13.296;2023-04-06T07:36:06;5.50;58.20
16313;DHT22;8265;52.622;13.296;2023-04-06T07:41:27;5.60;58.00
16313;DHT22;8265;52.622;13.296;2023-04-06T07:46:48;5.60;56.20
16313;DHT22;8265;52.622;13.296;2023-04-06T07:52:09;5.70;57.10
16313;DHT22;8265;52.622;13.296;2023-04-06T07:57:30;6.00;55.80
16313;DHT22;8265;52.622;13.296;2023-04-06T08:02:51;6.10;53.80
16313;DHT22;8265;52.622;13.296;2023-04-06T08:08:12;6.20;53.70
16313;DHT22;8265;52.622;13.296;2023-04-06T08:13:33;6.40;52.60
16313;DHT22;8265;52.622;13.296;2023-04-06T08:18:54;6.60;52.10
16313;DHT22;8265;52.622;13.296;2023-04-06T08:24:15;6.70;51.80
16313;DHT22;8265;52.622;13.296;2023-04-06T08:29:36;6.80;51.40
16313;DHT22;8265;52.622;13.296;2023-04-06T08:34:57;7.00;49.90
16313;DHT22;8265;52.622;13.296;2023-04-06T08:40:18;7.20;49.80
16313;DHT22;8265;52.622;13.296;2023-04-06T08:45:40;7.40;49.80
16313;DHT22;8265;52.622;13.296;2023-04-06T08:51:00;7.40;48.90
16313;DHT22;8265;52.622;13.296;2023-04-06T08:56:21;7.50;47.20
16313;DHT22;8265;52.622;13.296;2023-04-06T09:01:42;7.60;48.70
16313;DHT22;8265;52.622;13.296;2023-04-06T09:07:03;7.60;47.00
16313;DHT22;8265;52.622;13.296;2023-04-06T09:12:24;8.00;47.20
16313;DHT22;8265;52.622;13.296;2023-04-06T09:17:45;7.90;46.90
16313;DHT22;8265;52.622;13.296;2023-04-06T09:23:06;8.00;46.70
16313;DHT22;8265;52.622;13.296;2023-04-06T09:28:26;8.10;45.00
16313;DHT22;8265;52.622;13.296;2023-04-06T09:33:48;8.10;46.00
16313;DHT22;8265;52.622;13.296;2023-04-06T09:39:08;8.20;44.40
16313;DHT22;8265;52.622;13.296;2023-04-06T09:44:29;8.30;44.00
16313;DHT22;8265;52.622;13.296;2023-04-06T09:49:50;8.40;44.10
16313;DHT22;8265;52.622;13.296;2023-04-06T09:55:11;8.60;41.70
16313;DHT22;8265;52.622;13.296;2023-04-06T10:00:34;8.80;42.30
16313;DHT22;8265;52.622;13.296;2023-04-06T10:05:57;8.70;41.80
16313;DHT22;8265;52.622;13.296;2023-04-06T10:11:14;8.80;42.30
16313;DHT22;8265;52.622;13.296;2023-04-06T10:16:35;9.20;40.80
16313;DHT22;8265;52.622;13.296;2023-04-06T10:21:57;9.00;41.60
16313;DHT22;8265;52.622;13.296;2023-04-06T10:27:30;9.20;40.60
16313;DHT22;8265;52.622;13.296;2023-04-06T10:32:38;9.50;39.10
16313;DHT22;8265;52.622;13.296;2023-04-06T10:38:03;9.60;38.00
16313;DHT22;8265;52.622;13.296;2023-04-06T10:43:21;9.50;37.80
16313;DHT22;8265;52.622;13.296;2023-04-06T10:48:42;9.80;38.70
16313;DHT22;8265;52.622;13.296;2023-04-06T10:54:02;10.00;37.90
16313;DHT22;8265;52.622;13.296;2023-04-06T10:59:23;9.80;37.10
16313;DHT22;8265;52.622;13.296;2023-04-06T11:04:53;10.00;37.60
16313;DHT22;8265;52.622;13.296;2023-04-06T11:10:05;10.40;36.60
16313;DHT22;8265;52.622;13.296;2023-04-06T11:15:26;10.10;36.20
16313;DHT22;8265;52.622;13.296;2023-04-06T11:20:47;10.50;36.90
16313;DHT22;8265;52.622;13.296;2023-04-06T11:26:11;10.30;35.70
16313;DHT22;8265;52.622;13.296;2023-04-06T11:31:29;10.20;37.00
16313;DHT22;8265;52.622;13.296;2023-04-06T11:36:57;10.30;35.80
16313;DHT22;8265;52.622;13.296;2023-04-06T11:42:11;10.50;36.80
16313;DHT22;8265;52.622;13.296;2023-04-06T11:47:35;10.70;37.30
16313;DHT22;8265;52.622;13.296;2023-04-06T11:52:59;11.00;37.30
16313;DHT22;8265;52.622;13.296;2023-04-06T11:58:14;11.00;35.40
16313;DHT22;8265;52.622;13.296;2023-04-06T12:03:35;11.30;35.90
16313;DHT22;8265;52.622;13.296;2023-04-06T12:08:55;11.20;35.60
16313;DHT22;8265;52.622;13.296;2023-04-06T12:14:16;11.10;36.30
16313;DHT22;8265;52.622;13.296;2023-04-06T12:19:37;11.30;35.80
16313;DHT22;8265;52.622;13.296;2023-04-06T12:24:58;11.40;37.30
16313;DHT22;8265;52.622;13.296;2023-04-06T12:30:19;11.50;36.30
16313;DHT22;8265;52.622;13.296;2023-04-06T12:35:40;11.60;36.10
16313;DHT22;8265;52.622;13.296;2023-04-06T12:41:02;11.50;36.80
16313;DHT22;8265;52.622;13.296;2023-04-06T12:46:23;11.50;35.60
16313;DHT22;8265;52.622;13.296;2023-04-06T12:51:43;11.40;37.00
16313;DHT22;8265;52.622;13.296;2023-04-06T12:57:04;12.00;36.20
16313;DHT22;8265;52.622;13.296;2023-04-06T13:02:25;12.20;35.50
16313;DHT22;8265;52.622;13.296;2023-04-06T13:07:46;11.90;34.40
16313;DHT22;8265;52.622;13.296;2023-04-06T13:13:07;12.00;36.90
16313;DHT22;8265;52.622;13.296;2023-04-06T13:18:29;11.90;35.00
16313;DHT22;8265;52.622;13.296;2023-04-06T13:23:49;12.00;35.90
16313;DHT22;8265;52.622;13.296;2023-04-06T13:29:10;12.20;35.00
16313;DHT22;8265;52.622;13.296;2023-04-06T13:34:31;12.50;36.30
16313;DHT22;8265;52.622;13.296;2023-04-06T13:39:52;12.80;35.40
16313;DHT22;8265;52.622;13.296;2023-04-06T13:45:13;12.50;35.20
16313;DHT22;8265;52.622;13.296;2023-04-06T13:50:34;12.80;35.80
16313;DHT22;8265;52.622;13.296;2023-04-06T13:55:55;12.90;34.60
16313;DHT22;8265;52.622;13.296;2023-04-06T14:01:16;13.10;35.70
16313;DHT22;8265;52.622;13.296;2023-04-06T14:06:37;13.00;37.30
16313;DHT22;8265;52.622;13.296;2023-04-06T14:11:58;13.30;37.60
16313;DHT22;8265;52.622;13.296;2023-04-06T14:17:19;13.50;35.20
16313;DHT22;8265;52.622;13.296;2023-04-06T14:22:41;13.50;35.90
16313;DHT22;8265;52.622;13.296;2023-04-06T14:28:01;13.30;36.10
16313;DHT22;8265;52.622;13.296;2023-04-06T14:33:22;13.30;35.00
16313;DHT22;8265;52.622;13.296;2023-04-06T14:38:43;13.80;36.10
16313;DHT22;8265;52.622;13.296;2023-04-06T14:44:04;13.90;34.60
16313;DHT22;8265;52.622;13.296;2023-04-06T14:49:25;13.20;35.50
16313;DHT22;8265;52.622;13.296;2023-04-06T14:54:46;12.90;36.40
16313;DHT22;8265;52.622;13.296;2023-04-06T15:00:07;12.90;35.60
16313;DHT22;8265;52.622;13.296;2023-04-06T15:05:28;12.10;35.00
16313;DHT22;8265;52.622;13.296;2023-04-06T15:10:49;12.80;37.00
16313;DHT22;8265;52.622;13.296;2023-04-06T15:16:10;13.00;36.70
16313;DHT22;8265;52.622;13.296;2023-04-06T15:21:33;12.90;37.60
16313;DHT22;8265;52.622;13.296;2023-04-06T15:26:52;13.30;36.10
16313;DHT22;8265;52.622;13.296;2023-04-06T15:32:13;13.60;36.60
16313;DHT22;8265;52.622;13.296;2023-04-06T15:37:34;13.30;36.20
16313;DHT22;8265;52.622;13.296;2023-04-06T15:42:55;13.20;36.30
16313;DHT22;8265;52.622;13.296;2023-04-06T15:48:16;12.90;37.00
16313;DHT22;8265;52.622;13.296;2023-04-06T15:53:37;12.70;37.10
16313;DHT22;8265;52.622;13.296;2023-04-06T15:58:58;13.30;36.70
16313;DHT22;8265;52.622;13.296;2023-04-06T16:04:19;13.70;37.00
16313;DHT22;8265;52.622;13.296;2023-04-06T16:09:40;15.00;36.10
16313;DHT22;8265;52.622;13.296;2023-04-06T16:15:01;14.00;35.90
16313;DHT22;8265;52.622;13.296;2023-04-06T16:20:22;13.10;36.60
16313;DHT22;8265;52.622;13.296;2023-04-06T16:25:43;12.50;37.50
16313;DHT22;8265;52.622;13.296;2023-04-06T16:31:04;11.60;38.70
16313;DHT22;8265;52.622;13.296;2023-04-06T16:36:25;11.40;40.00
16313;DHT22;8265;52.622;13.296;2023-04-06T16:41:46;11.30;39.90
16313;DHT22;8265;52.622;13.296;2023-04-06T16:47:07;10.90;40.30
16313;DHT22;8265;52.622;13.296;2023-04-06T16:52:28;10.50;41.30
16313;DHT22;8265;52.622;13.296;2023-04-06T16:57:49;10.20;41.20
16313;DHT22;8265;52.622;13.296;2023-04-06T17:03:10;9.80;42.00
16313;DHT22;8265;52.622;13.296;2023-04-06T17:08:31;9.40;43.30
16313;DHT22;8265;52.622;13.296;2023-04-06T17:13:52;9.20;44.30
16313;DHT22;8265;52.622;13.296;2023-04-06T17:19:13;8.90;44.20
16313;DHT22;8265;52.622;13.296;2023-04-06T17:24:34;8.60;45.60
16313;DHT22;8265;52.622;13.296;2023-04-06T17:29:55;8.20;46.20
16313;DHT22;8265;52.622;13.296;2023-04-06T17:35:16;8.00;47.20
16313;DHT22;8265;52.622;13.296;2023-04-06T17:40:37;7.80;47.90
16313;DHT22;8265;52.622;13.296;2023-04-06T17:45:58;7.50;48.50
16313;DHT22;8265;52.622;13.296;2023-04-06T17:51:19;7.10;48.90
16313;DHT22;8265;52.622;13.296;2023-04-06T17:56:40;6.90;49.70
16313;DHT22;8265;52.622;13.296;2023-04-06T18:02:01;6.60;50.20
16313;DHT22;8265;52.622;13.296;2023-04-06T18:07:22;6.40;51.00
16313;DHT22;8265;52.622;13.296;2023-04-06T18:12:43;6.20;51.50
16313;DHT22;8265;52.622;13.296;2023-04-06T18:18:04;6.00;52.10
16313;DHT22;8265;52.622;13.296;2023-04-06T18:23:25;5.90;52.70
16313;DHT22;8265;52.622;13.296;2023-04-06T18:28:46;5.70;53.00
16313;DHT22;8265;52.622;13.296;2023-04-06T18:34:07;5.60;52.80
16313;DHT22;8265;52.622;13.296;2023-04-06T18:39:28;5.50;53.50
16313;DHT22;8265;52.622;13.296;2023-04-06T18:44:49;5.30;54.20
16313;DHT22;8265;52.622;13.296;2023-04-06T18:50:10;5.20;54.20
16313;DHT22;8265;52.622;13.296;2023-04-06T18:55:31;5.10;54.80
16313;DHT22;8265;52.622;13.296;2023-04-06T19:00:52;5.00;55.50
16313;DHT22;8265;52.622;13.296;2023-04-06T19:06:13;5.00;55.10
16313;DHT22;8265;52.622;13.296;2023-04-06T19:11:34;4.70;55.20
16313;DHT22;8265;52.622;13.296;2023-04-06T19:16:55;4.50;56.30
16313;DHT22;8265;52.622;13.296;2023-04-06T19:22:16;4.50;56.50
16313;DHT22;8265;52.622;13.296;2023-04-06T19:27:37;4.30;56.90
16313;DHT22;8265;52.622;13.296;2023-04-06T19:32:58;4.20;57.30
16313;DHT22;8265;52.622;13.296;2023-04-06T19:38:19;4.00;58.00
16313;DHT22;8265;52.622;13.296;2023-04-06T19:43:40;3.90;59.20
16313;DHT22;8265;52.622;13.296;2023-04-06T19:49:00;3.70;59.10
16313;DHT22;8265;52.622;13.296;2023-04-06T19:54:22;3.80;59.10
16313;DHT22;8265;52.622;13.296;2023-04-06T19:59:42;3.70;60.20
16313;DHT22;8265;52.622;13.296;2023-04-06T20:05:04;3.40;60.40
16313;DHT22;8265;52.622;13.296;2023-04-06T20:10:24;3.30;60.60
16313;DHT22;8265;52.622;13.296;2023-04-06T20:15:45;3.30;61.30
16313;DHT22;8265;52.622;13.296;2023-04-06T20:21:06;3.30;60.70
16313;DHT22;8265;52.622;13.296;2023-04-06T20:26:27;3.10;62.20
16313;DHT22;8265;52.622;13.296;2023-04-06T20:31:48;3.10;62.00
16313;DHT22;8265;52.622;13.296;2023-04-06T20:37:09;3.00;62.20
16313;DHT22;8265;52.622;13.296;2023-04-06T20:42:30;3.10;61.10
16313;DHT22;8265;52.622;13.296;2023-04-06T20:47:51;3.10;62.00
16313;DHT22;8265;52.622;13.296;2023-04-06T20:53:12;2.90;62.50
16313;DHT22;8265;52.622;13.296;2023-04-06T20:58:33;2.90;62.50
16313;DHT22;8265;52.622;13.296;2023-04-06T21:03:54;2.70;63.00
16313;DHT22;8265;52.622;13.296;2023-04-06T21:09:15;2.70;63.20
16313;DHT22;8265;52.622;13.296;2023-04-06T21:14:36;2.80;63.20
16313;DHT22;8265;52.622;13.296;2023-04-06T21:19:57;2.60;63.70
16313;DHT22;8265;52.622;13.296;2023-04-06T21:25:18;2.40;64.30
16313;DHT22;8265;52.622;13.296;2023-04-06T21:30:39;2.40;64.10
16313;DHT22;8265;52.622;13.296;2023-04-06T21:36:06;2.20;64.40
16313;DHT22;8265;52.622;13.296;2023-04-06T21:41:21;2.30;64.40
16313;DHT22;8265;52.622;13.296;2023-04-06T21:46:42;2.10;64.80
16313;DHT22;8265;52.622;13.296;2023-04-06T21:52:03;2.10;64.80
16313;DHT22;8265;52.622;13.296;2023-04-06T21:57:24;2.00;65.40
16313;DHT22;8265;52.622;13.296;2023-04-06T22:02:45;2.00;65.50
16313;DHT22;8265;52.622;13.296;2023-04-06T22:08:06;2.10;65.40
16313;DHT22;8265;52.622;13.296;2023-04-06T22:13:27;2.00;65.80
16313;DHT22;8265;52.622;13.296;2023-04-06T22:18:48;1.80;66.00
16313;DHT22;8265;52.622;13.296;2023-04-06T22:24:09;1.60;66.50
16313;DHT22;8265;52.622;13.296;2023-04-06T22:29:30;1.50;66.90
16313;DHT22;8265;52.622;13.296;2023-04-06T22:34:51;1.50;66.70
16313;DHT22;8265;52.622;13.296;2023-04-06T22:40:12;1.50;67.60
16313;DHT22;8265;52.622;13.296;2023-04-06T22:45:33;1.40;67.60
16313;DHT22;8265;52.622;13.296;2023-04-06T22:50:54;1.30;68.40
16313;DHT22;8265;52.622;13.296;2023-04-06T22:56:15;1.10;68.70
16313;DHT22;8265;52.622;13.296;2023-04-06T23:01:36;1.10;69.00
16313;DHT22;8265;52.622;13.296;2023-04-06T23:06:57;0.90;69.20
16313;DHT22;8265;52.622;13.296;2023-04-06T23:12:18;0.80;70.80
16313;DHT22;8265;52.622;13.296;2023-04-06T23:17:39;0.80;70.30
16313;DHT22;8265;52.622;13.296;2023-04-06T23:23:00;0.60;70.60
16313;DHT22;8265;52.622;13.296;2023-04-06T23:28:21;0.60;70.70
16313;DHT22;8265;52.622;13.296;2023-04-06T23:33:42;0.60;70.50
16313;DHT22;8265;52.622;13.296;2023-04-06T23:39:03;0.60;70.70
16313;DHT22;8265;52.622;13.296;2023-04-06T23:44:27;0.50;71.70
16313;DHT22;8265;52.622;13.296;2023-04-06T23:49:45;0.50;72.20
16313;DHT22;8265;52.622;13.296;2023-04-06T23:55:06;0.40;72.60
